メインページ
METAR-TAF:

METAR-TAF

空港 :

ジブラルタル, ジブラルタル

ジブラルタル国際空港

緯度: 36-09N, 経度: 005-21W, 海抜: 5m

現時点の気象観測

当レポートは1時間3分前の19:50(UTC)に作成
西/南西の風 11kt
気温 14°C
湿度 67%
気圧 1007 hPa
視程10km以上

METAR: LXGB 111950Z AUTO 24011KT 9999 // SCT050/// 14/08 Q1007

時間: 21:53 (20:53 UTC)

予報

当レポートは7時間18分前の13:35(UTC)に作成
予報は11日の 15時(UTC)から 11日の 22時(UTC)まで有効
西の風 12kt
視程10km以上
高度3000ftの雲はほとんどない

TAF: LXGB 111335Z 1115/1122 27012KT 9999 FEW030

4,000以上の空港の気象観測と天気予報(METAR報とTAF報)

利用可能な観測所は地図上に黄色い丸と赤い丸で示す。

丸の上にカーソルを重ねると観測所名を参照できる。

次にクリックすると気象観測と天気予報を参照できる。

マップの切り替え:黒色「×」印の緑ボタンをクリックして拡大、「-」印の緑ボタンをクリックして縮小、緑色の三角印をクリックして隣りの地図に切り替え


METAR-TAF: